FXMM/MSU METAR and TAF weather

Enter ICAO airport designator
Station Type Date Time Source
FXMM METAR 2019/10/18 06:00 UTC NOAA

FXMM 180600Z 00000KT CAVOK 23/06 Q1024 NOSIG


Station Type Date Time Source
FXMM Decoded METAR 2019/10/18 06:00 UTC NOAA

Maseru / Moshoeshoe, Lesotho (FXMM) 29-27S 027-33E
Oct 18, 2019 - 02:00 AM EDT / 2019.10.18 0600 UTC
Wind: Calm:0
Visibility: greater than 7 mile(s):0
Temperature: 73 F (23 C)
Dew Point: 42 F (6 C)
Relative Humidity: 33%
Pressure (altimeter): 30.24 in. Hg (1024 hPa)
ob: FXMM 180600Z 00000KT CAVOK 23/06 Q1024 NOSIG
cycle: 6

Station Type Date Time Source
FXMM TAF 2019/09/24 06:45 UTC NOAA

TAF FXMM 240330Z 2406/2506 VRB02KT 9999 SCT080
BECMG 2410/2412 20005KT FEW030 BKN090
BECMG 2413/2415 18004KT FEW030TCU BKN035
FM241600 15004KT //// FEW030
FM241900 14008KT CAVOK

Example: see airport list